createdAt,value
2018-12-29T00:02:56.573Z,38.08
2018-12-29T00:09:05.039Z,41.13
2018-12-29T00:12:06.740Z,39.60
2018-12-29T00:15:08.796Z,43.28
2018-12-29T00:18:10.739Z,44.33
2018-12-29T00:21:11.674Z,41.42
2018-12-29T00:24:14.966Z,34.13
2018-12-29T00:27:16.579Z,47.08
2018-12-29T00:30:17.648Z,48.63
2018-12-29T00:33:18.763Z,34.13
2018-12-29T00:39:27.031Z,42.05
2018-12-29T00:42:28.755Z,39.92
2018-12-29T00:45:29.767Z,32.70
2018-12-29T00:48:31.007Z,38.38
2018-12-29T00:51:32.499Z,28.50
2018-12-29T00:54:33.563Z,38.42
2018-12-29T00:57:35.182Z,43.55
2018-12-29T01:00:41.070Z,39.55
2018-12-29T01:03:42.758Z,40.23
2018-12-29T01:09:51.319Z,31.45
2018-12-29T01:12:52.490Z,33.65
2018-12-29T01:15:53.730Z,37.83
2018-12-29T01:18:55.370Z,40.33
2018-12-29T01:21:56.787Z,31.82
2018-12-29T01:24:58.607Z,39.73
2018-12-29T01:27:59.859Z,32.13
2018-12-29T01:31:01.549Z,38.70
2018-12-29T01:34:03.604Z,39.27
2018-12-29T01:40:12.280Z,35.68
2018-12-29T01:43:13.824Z,32.38
2018-12-29T01:46:15.642Z,38.48
2018-12-29T01:49:17.162Z,27.70
2018-12-29T01:52:18.208Z,37.48
2018-12-29T01:55:18.243Z,32.78
2018-12-29T01:58:19.596Z,31.35
2018-12-29T02:01:21.338Z,34.48
2018-12-29T02:04:22.720Z,33.02
2018-12-29T02:10:30.895Z,36.98
2018-12-29T02:13:32.098Z,27.27
2018-12-29T02:16:33.040Z,38.78
2018-12-29T02:19:34.010Z,29.52
2018-12-29T02:22:35.764Z,34.30
2018-12-29T02:25:36.883Z,26.87
2018-12-29T02:28:38.539Z,26.17
2018-12-29T02:31:40.177Z,31.33
2018-12-29T02:34:40.484Z,19.45
2018-12-29T02:40:48.694Z,26.62
2018-12-29T02:43:51.161Z,25.77
2018-12-29T02:46:52.842Z,31.48
2018-12-29T02:49:54.110Z,26.23
2018-12-29T02:52:55.348Z,27.42
2018-12-29T02:55:55.291Z,23.12
2018-12-29T02:58:56.962Z,25.73
2018-12-29T03:01:58.334Z,25.60
2018-12-29T03:04:59.652Z,24.07
2018-12-29T03:11:08.067Z,25.67
2018-12-29T03:14:10.015Z,24.10
2018-12-29T03:17:11.319Z,28.60
2018-12-29T03:20:13.344Z,32.70
2018-12-29T03:23:14.355Z,27.65
2018-12-29T03:26:16.019Z,28.87
2018-12-29T03:29:17.738Z,24.27
2018-12-29T03:32:17.573Z,29.40
2018-12-29T03:42:05.680Z,32.50
2018-12-29T03:45:07.102Z,26.00
2018-12-29T03:48:08.060Z,33.83
2018-12-29T03:51:09.069Z,32.88
2018-12-29T03:54:10.107Z,28.92
2018-12-29T03:57:11.402Z,32.33
2018-12-29T04:00:12.801Z,25.90
2018-12-29T04:03:14.607Z,37.93
2018-12-29T04:06:16.270Z,24.35
2018-12-29T04:12:24.974Z,30.80
2018-12-29T04:15:26.160Z,35.00
2018-12-29T04:18:27.251Z,30.55
2018-12-29T04:21:28.888Z,43.42
2018-12-29T04:24:30.080Z,30.20
2018-12-29T04:27:31.529Z,35.03
2018-12-29T04:30:33.231Z,34.53
2018-12-29T04:33:34.866Z,31.00
2018-12-29T04:36:36.371Z,33.05
2018-12-29T04:42:44.767Z,36.63
2018-12-29T04:45:45.907Z,38.63
2018-12-29T04:48:46.866Z,32.17
2018-12-29T04:51:48.566Z,38.00
2018-12-29T04:54:50.237Z,34.90
2018-12-29T04:57:52.184Z,46.05
2018-12-29T05:04:00.310Z,42.45
2018-12-29T05:07:01.514Z,47.20
2018-12-29T05:13:10.367Z,42.23
2018-12-29T05:16:13.034Z,48.00
2018-12-29T05:19:14.952Z,41.65
2018-12-29T05:22:16.874Z,39.63
2018-12-29T05:25:18.487Z,35.70
2018-12-29T05:28:20.159Z,37.95
2018-12-29T05:31:21.808Z,47.23
2018-12-29T05:34:22.997Z,50.17
2018-12-29T05:37:22.955Z,39.80
2018-12-29T05:50:18.798Z,46.15
2018-12-29T05:53:19.871Z,38.08
2018-12-29T05:56:09.542Z,34.38
2018-12-29T05:58:59.258Z,33.70
2018-12-29T06:02:00.593Z,40.88
2018-12-29T06:05:01.981Z,46.63
2018-12-29T06:07:51.766Z,43.60
2018-12-29T06:10:41.246Z,51.13
2018-12-29T06:13:30.898Z,36.70
2018-12-29T06:16:27.491Z,51.80
2018-12-29T06:19:24.090Z,45.55
2018-12-29T06:22:13.747Z,41.80
2018-12-29T06:28:36.364Z,43.95
2018-12-29T06:31:38.086Z,39.05
2018-12-29T06:34:27.874Z,45.90
2018-12-29T06:37:36.682Z,35.75
2018-12-29T06:40:37.503Z,39.42
2018-12-29T06:43:45.242Z,47.15
2018-12-29T06:46:46.749Z,41.95
2018-12-29T06:49:48.604Z,45.90
2018-12-29T06:52:49.722Z,41.58
2018-12-29T06:55:51.954Z,35.20
2018-12-29T06:58:54.702Z,55.17
2018-12-29T07:01:56.525Z,32.55
2018-12-29T07:04:57.549Z,41.73
2018-12-29T07:07:59.584Z,42.75
2018-12-29T07:14:08.583Z,37.10
2018-12-29T07:17:10.150Z,45.97
2018-12-29T07:20:11.279Z,44.57
2018-12-29T07:23:12.871Z,40.33
2018-12-29T07:26:14.005Z,56.40
2018-12-29T07:29:15.712Z,37.87
2018-12-29T07:32:17.339Z,44.40
2018-12-29T07:35:19.202Z,40.60
2018-12-29T07:38:20.107Z,36.53
2018-12-29T07:41:27.515Z,41.90
2018-12-29T07:44:28.690Z,44.60
2018-12-29T07:47:30.335Z,35.83
2018-12-29T07:50:31.827Z,35.03
2018-12-29T07:53:33.344Z,35.40
2018-12-29T07:56:34.576Z,51.50
2018-12-29T07:59:35.806Z,31.60
2018-12-29T08:02:37.114Z,43.40
2018-12-29T08:05:39.052Z,44.47
2018-12-29T08:08:39.078Z,49.77
2018-12-29T08:15:08.611Z,32.17
2018-12-29T08:18:09.871Z,31.53
2018-12-29T08:21:11.139Z,41.70
2018-12-29T08:24:16.135Z,41.97
2018-12-29T08:27:17.785Z,38.90
2018-12-29T08:30:18.815Z,35.20
2018-12-29T08:33:20.616Z,42.80
2018-12-29T08:36:20.659Z,34.30
2018-12-29T08:39:29.234Z,44.37
2018-12-29T08:45:37.674Z,35.90
2018-12-29T08:48:38.864Z,44.03
2018-12-29T08:51:40.292Z,39.03
2018-12-29T08:54:41.325Z,38.10
2018-12-29T08:57:42.995Z,49.17
2018-12-29T09:00:44.602Z,41.33
2018-12-29T09:03:45.744Z,43.07
2018-12-29T09:06:47.219Z,41.57
2018-12-29T09:09:48.194Z,40.83
2018-12-29T09:12:55.584Z,34.90
2018-12-29T09:15:57.091Z,32.60
2018-12-29T09:18:58.340Z,33.73
2018-12-29T09:22:05.940Z,37.90
2018-12-29T09:25:07.867Z,34.50
2018-12-29T09:28:08.763Z,38.70
2018-12-29T09:31:10.416Z,35.40
2018-12-29T09:34:11.816Z,44.90
2018-12-29T09:37:13.676Z,35.30
2018-12-29T09:40:14.787Z,34.90
2018-12-29T09:43:22.560Z,42.93
2018-12-29T09:46:24.787Z,38.13
2018-12-29T09:49:26.292Z,43.50
2018-12-29T09:52:27.636Z,37.10
2018-12-29T09:55:29.308Z,40.97
2018-12-29T09:58:30.869Z,43.87
2018-12-29T10:01:32.837Z,39.40
2018-12-29T10:04:34.690Z,37.57
2018-12-29T10:07:35.871Z,39.80
2018-12-29T10:10:36.756Z,33.00
2018-12-29T10:13:44.388Z,36.87
2018-12-29T10:16:46.315Z,31.07
2018-12-29T10:19:47.808Z,36.63
2018-12-29T10:25:55.807Z,33.20
2018-12-29T10:28:57.399Z,39.90
2018-12-29T10:31:59.082Z,43.00
2018-12-29T10:35:00.636Z,37.97
2018-12-29T10:38:02.546Z,36.80
2018-12-29T10:41:04.182Z,42.33
2018-12-29T10:44:12.048Z,36.20
2018-12-29T10:47:13.995Z,42.40
2018-12-29T10:50:15.326Z,43.77
2018-12-29T10:53:16.198Z,33.10
2018-12-29T10:56:17.548Z,39.53
2018-12-29T10:59:19.015Z,39.53
2018-12-29T11:02:20.093Z,32.73
2018-12-29T11:05:22.203Z,30.47
2018-12-29T11:08:23.284Z,41.07
2018-12-29T11:11:24.771Z,36.20
2018-12-29T11:14:32.053Z,35.27
2018-12-29T11:17:41.974Z,43.23
2018-12-29T11:20:37.116Z,33.73
2018-12-29T11:23:38.611Z,38.47
2018-12-29T11:26:40.121Z,30.33
2018-12-29T11:29:41.673Z,33.97
2018-12-29T11:32:42.643Z,30.60
2018-12-29T11:35:43.604Z,40.27
2018-12-29T11:38:45.071Z,42.40
2018-12-29T11:41:46.003Z,38.80
2018-12-29T11:44:53.395Z,34.40
2018-12-29T11:47:55.158Z,34.67
2018-12-29T11:50:56.359Z,30.70
2018-12-29T11:53:57.615Z,47.27
2018-12-29T11:56:58.782Z,67.33
2018-12-29T12:00:00.982Z,79.03
2018-12-29T12:03:02.607Z,65.93
2018-12-29T12:06:03.664Z,37.23
2018-12-29T12:09:04.930Z,31.80
2018-12-29T12:12:06.941Z,35.97
2018-12-29T12:15:14.655Z,39.00
2018-12-29T12:18:16.655Z,30.20
2018-12-29T12:21:17.920Z,31.30
2018-12-29T12:24:19.103Z,42.13
2018-12-29T12:27:21.354Z,73.77
2018-12-29T12:30:23.602Z,46.53
2018-12-29T12:33:25.388Z,35.13
2018-12-29T12:36:27.095Z,28.10
2018-12-29T12:39:27.948Z,30.67
2018-12-29T12:42:29.226Z,43.07
2018-12-29T12:45:36.323Z,32.60
2018-12-29T12:48:38.783Z,37.87
2018-12-29T12:51:39.799Z,26.87
2018-12-29T12:54:41.368Z,31.57
2018-12-29T12:57:43.754Z,24.70
2018-12-29T13:00:47.478Z,28.33
2018-12-29T13:03:49.917Z,28.13
2018-12-29T13:06:51.090Z,31.73
2018-12-29T13:09:52.643Z,28.37
2018-12-29T13:12:54.191Z,26.60
2018-12-29T13:16:01.681Z,27.13
2018-12-29T13:19:03.642Z,22.37
2018-12-29T13:22:09.586Z,26.77
2018-12-29T13:25:12.156Z,30.00
2018-12-29T13:28:13.736Z,29.33
2018-12-29T13:31:15.361Z,25.40
2018-12-29T13:34:17.336Z,30.67
2018-12-29T13:37:18.480Z,30.50
2018-12-29T13:40:19.739Z,33.53
2018-12-29T13:43:20.955Z,32.43
2018-12-29T13:46:27.919Z,28.47
2018-12-29T13:49:30.070Z,33.93
2018-12-29T13:52:31.483Z,31.77
2018-12-29T13:55:33.091Z,30.50
2018-12-29T13:58:35.024Z,27.63
2018-12-29T14:01:37.544Z,32.63
2018-12-29T14:04:39.078Z,22.93
2018-12-29T14:07:40.124Z,27.10
2018-12-29T14:10:41.603Z,28.13
2018-12-29T14:13:42.788Z,34.20
2018-12-29T14:20:12.275Z,30.50
2018-12-29T14:23:14.023Z,32.43
2018-12-29T14:26:16.624Z,25.60
2018-12-29T14:29:18.642Z,30.77
2018-12-29T14:32:20.496Z,30.30
2018-12-29T14:35:22.147Z,29.13
2018-12-29T14:38:23.142Z,26.63
2018-12-29T14:41:24.043Z,31.07
2018-12-29T14:44:30.902Z,30.43
2018-12-29T14:47:42.330Z,25.00
2018-12-29T14:54:03.353Z,29.87
2018-12-29T14:59:53.950Z,28.40
2018-12-29T15:02:59.726Z,26.97
2018-12-29T15:08:48.096Z,27.07
2018-12-29T15:14:41.383Z,29.90
2018-12-29T15:17:49.087Z,30.97
2018-12-29T15:20:57.032Z,31.37
2018-12-29T15:23:58.529Z,31.70
2018-12-29T15:27:00.719Z,26.50
2018-12-29T15:30:01.995Z,24.97
2018-12-29T15:33:04.227Z,23.80
2018-12-29T15:36:05.721Z,23.97
2018-12-29T15:39:07.731Z,28.87
2018-12-29T15:42:09.307Z,28.90
2018-12-29T15:45:10.691Z,31.33
2018-12-29T15:48:17.879Z,25.67
2018-12-29T15:51:20.229Z,31.97
2018-12-29T15:54:21.682Z,26.23
2018-12-29T15:57:25.816Z,25.57
2018-12-29T16:00:27.376Z,29.67
2018-12-29T16:03:29.531Z,21.47
2018-12-29T16:06:31.095Z,27.60
2018-12-29T16:09:32.955Z,27.60
2018-12-29T16:12:34.618Z,28.07
2018-12-29T16:15:35.235Z,26.70
2018-12-29T16:31:52.163Z,24.90
2018-12-29T16:34:54.149Z,28.27
2018-12-29T16:37:56.109Z,27.27
2018-12-29T16:40:57.970Z,22.07
2018-12-29T16:44:00.606Z,23.87
2018-12-29T16:47:01.939Z,32.90
2018-12-29T16:53:10.319Z,24.63
2018-12-29T16:56:11.743Z,23.07
2018-12-29T16:59:14.710Z,25.77
2018-12-29T17:02:17.287Z,26.40
2018-12-29T17:05:19.747Z,26.40
2018-12-29T17:08:21.743Z,28.97
2018-12-29T17:11:23.080Z,33.50
2018-12-29T17:14:26.559Z,29.73
2018-12-29T17:17:28.254Z,27.73
2018-12-29T17:23:36.918Z,28.43
2018-12-29T17:26:38.475Z,27.00
2018-12-29T17:29:40.305Z,26.30
2018-12-29T17:32:42.290Z,25.53
2018-12-29T17:35:43.747Z,33.40
2018-12-29T17:38:45.430Z,30.30
2018-12-29T17:41:47.418Z,26.90
2018-12-29T17:44:49.375Z,27.80
2018-12-29T17:47:51.895Z,23.23
2018-12-29T17:54:00.426Z,27.40
2018-12-29T17:57:02.458Z,28.27
2018-12-29T18:00:03.071Z,30.27
2018-12-29T18:06:39.351Z,25.97
2018-12-29T18:09:40.880Z,27.80
2018-12-29T18:12:42.174Z,31.37
2018-12-29T18:15:44.277Z,24.57
2018-12-29T18:18:46.691Z,26.40
2018-12-29T18:24:55.539Z,21.80
2018-12-29T18:27:57.310Z,28.50
2018-12-29T18:30:58.986Z,29.23
2018-12-29T18:34:00.763Z,26.60
2018-12-29T18:37:02.300Z,24.47
2018-12-29T18:40:03.231Z,25.93
2018-12-29T18:43:05.070Z,30.33
2018-12-29T18:46:06.775Z,34.53
2018-12-29T18:49:08.454Z,23.80
2018-12-29T18:55:16.851Z,28.47
2018-12-29T18:58:18.535Z,25.70
2018-12-29T19:01:19.159Z,27.17
2018-12-29T19:07:54.181Z,33.93
2018-12-29T19:10:55.894Z,35.20
2018-12-29T19:13:58.859Z,36.27
2018-12-29T19:17:01.133Z,28.67
2018-12-29T19:20:03.262Z,33.07
2018-12-29T19:26:11.123Z,34.23
2018-12-29T19:29:13.767Z,30.67
2018-12-29T19:32:15.719Z,27.93
2018-12-29T19:35:18.163Z,30.17
2018-12-29T19:38:19.647Z,34.30
2018-12-29T19:41:21.640Z,26.63
2018-12-29T19:44:24.591Z,28.70
2018-12-29T19:47:26.222Z,34.47
2018-12-29T19:50:27.471Z,33.50
2018-12-29T19:56:36.498Z,29.60
2018-12-29T19:59:38.771Z,30.73
2018-12-29T20:05:47.106Z,28.50
2018-12-29T20:08:48.383Z,28.53
2018-12-29T20:11:50.225Z,29.27
2018-12-29T20:14:52.021Z,29.57
2018-12-29T20:17:54.175Z,22.43
2018-12-29T20:20:55.072Z,23.63
2018-12-29T20:27:03.074Z,17.87
2018-12-29T20:30:05.516Z,21.03
2018-12-29T20:33:06.832Z,17.07
2018-12-29T20:36:08.761Z,25.37
2018-12-29T20:39:09.880Z,25.97
2018-12-29T20:42:10.909Z,18.03
2018-12-29T20:45:13.175Z,22.33
2018-12-29T20:48:14.591Z,18.07
2018-12-29T20:51:16.260Z,22.90
2018-12-29T20:57:27.770Z,29.17
2018-12-29T21:00:29.458Z,18.33
2018-12-29T21:03:30.939Z,19.27
2018-12-29T21:06:32.755Z,23.20
2018-12-29T21:09:34.003Z,19.57
2018-12-29T21:12:35.791Z,21.90
2018-12-29T21:15:37.571Z,17.60
2018-12-29T21:18:39.166Z,18.80
2018-12-29T21:21:40.577Z,17.90
2018-12-29T21:27:49.319Z,20.80
2018-12-29T21:30:51.487Z,20.00
2018-12-29T21:33:52.146Z,16.20
2018-12-29T21:40:27.339Z,19.70
2018-12-29T21:43:28.663Z,17.63
2018-12-29T21:46:30.559Z,15.30
2018-12-29T21:49:32.327Z,17.00
2018-12-29T21:52:33.522Z,19.40
2018-12-29T21:58:42.527Z,16.40
2018-12-29T22:01:45.071Z,18.40
2018-12-29T22:04:46.770Z,14.90
2018-12-29T22:07:49.481Z,14.27
2018-12-29T22:10:50.738Z,12.47
2018-12-29T22:13:52.944Z,12.13
2018-12-29T22:16:54.774Z,12.37
2018-12-29T22:19:56.670Z,10.87
2018-12-29T22:23:04.367Z,15.40
2018-12-29T22:29:12.383Z,13.63
2018-12-29T22:32:14.916Z,13.83
2018-12-29T22:35:16.575Z,12.23
2018-12-29T22:38:17.589Z,11.87
2018-12-29T22:41:18.010Z,10.47
2018-12-29T22:44:18.136Z,13.07
2018-12-29T22:47:27.322Z,11.47
2018-12-29T22:50:29.081Z,7.60
2018-12-29T22:53:30.899Z,13.40
2018-12-29T22:56:38.379Z,8.87
2018-12-29T22:59:39.723Z,12.67
2018-12-29T23:02:29.674Z,10.47
2018-12-29T23:12:06.458Z,9.43
2018-12-29T23:15:08.426Z,9.93
2018-12-29T23:18:09.598Z,9.07
2018-12-29T23:20:59.736Z,12.00
2018-12-29T23:30:23.122Z,12.07
2018-12-29T23:33:25.098Z,11.17
2018-12-29T23:36:26.180Z,12.07
2018-12-29T23:39:27.456Z,11.27
2018-12-29T23:42:28.754Z,12.60
2018-12-29T23:45:30.123Z,16.63
2018-12-29T23:48:31.237Z,16.60
2018-12-29T23:51:32.710Z,15.40
2018-12-29T23:54:34.336Z,18.37
2018-12-29T23:57:41.373Z,18.13
